Weather Data

Pearl Creek Farm: 8878 N Farm Road 75, Walnut Grove MO 65770

<== Previous Day (Monday 14 Aug 2017) | Next Day (Wednesday 16 Aug 2017) ==>

Summary Precipitation Data For Tuesday 15 August 2017

ElementValueUnits
PrecipitationT
Notes(none)
SourcePearl Creek Farm

Summary Temperature Data For Tuesday 15 August 2017

ElementValueUnits
High Temperature85 oF
Low Temperature68 oF
Average Temperature77 oF
High Humidity100 %
Low Humidity65 %
Average Humidity85 %
SourceSpringfield-Branson National Airport (SGF)

Detail Temperature Data For Tuesday 15 August 2017

Date / TimeTemp (F)RH (%)Dew Pt (F)Report Date / TimeSource
2017-08-15 22:52:00 78 90 75.0 2017-12-29 17:00:26.17417 Springfield-Branson National Airport (SGF)
2017-08-15 23:52:00 76 100 76.0 2017-12-29 17:00:26.17417 Springfield-Branson National Airport (SGF)
2017-08-15 00:52:00 69 100 69.0 2017-12-29 17:00:26.17417 Springfield-Branson National Airport (SGF)
2017-08-15 01:52:00 68 100 68.0 2017-12-29 17:00:26.17417 Springfield-Branson National Airport (SGF)
2017-08-15 02:52:00 69 100 69.0 2017-12-29 17:00:26.17417 Springfield-Branson National Airport (SGF)
2017-08-15 03:52:00 68 100 68.0 2017-12-29 17:00:26.17417 Springfield-Branson National Airport (SGF)
2017-08-15 04:52:00 69 100 69.0 2017-12-29 17:00:26.17417 Springfield-Branson National Airport (SGF)
2017-08-15 06:52:00 71 96 70.0 2017-12-29 17:00:26.17417 Springfield-Branson National Airport (SGF)
2017-08-15 07:52:00 73 94 71.0 2017-12-29 17:00:26.17417 Springfield-Branson National Airport (SGF)
2017-08-15 08:52:00 75 88 71.0 2017-12-29 17:00:26.17417 Springfield-Branson National Airport (SGF)
2017-08-15 09:52:00 76 88 72.0 2017-12-29 17:00:26.17417 Springfield-Branson National Airport (SGF)
2017-08-15 10:52:00 78 82 72.0 2017-12-29 17:00:26.17417 Springfield-Branson National Airport (SGF)
2017-08-15 11:52:00 80 79 73.0 2017-12-29 17:00:26.17417 Springfield-Branson National Airport (SGF)
2017-08-15 12:52:00 83 70 72.0 2017-12-29 17:00:26.17417 Springfield-Branson National Airport (SGF)
2017-08-15 13:52:00 83 70 72.0 2017-12-29 17:00:26.17417 Springfield-Branson National Airport (SGF)
2017-08-15 14:52:00 85 65 72.0 2017-12-29 17:00:26.17417 Springfield-Branson National Airport (SGF)
2017-08-15 15:52:00 84 65 71.0 2017-12-29 17:00:26.17417 Springfield-Branson National Airport (SGF)
2017-08-15 16:52:00 84 67 72.0 2017-12-29 17:00:26.17417 Springfield-Branson National Airport (SGF)
2017-08-15 17:52:00 82 74 73.0 2017-12-29 17:00:26.17417 Springfield-Branson National Airport (SGF)
2017-08-15 18:52:00 80 76 72.0 2017-12-29 17:00:26.17417 Springfield-Branson National Airport (SGF)
2017-08-15 19:52:00 79 79 72.0 2017-12-29 17:00:26.17417 Springfield-Branson National Airport (SGF)
2017-08-15 20:52:00 79 82 73.0 2017-12-29 17:00:26.17417 Springfield-Branson National Airport (SGF)
2017-08-15 21:52:00 78 87 74.0 2017-12-29 17:00:26.17417 Springfield-Branson National Airport (SGF)

A total of 23 rows are displayed.